createdAt,value
2022-11-01T00:01:58.564Z,99.90
2022-11-01T00:04:26.326Z,99.90
2022-11-01T00:06:54.015Z,99.90
2022-11-01T00:09:23.087Z,99.90
2022-11-01T00:11:50.761Z,99.90
2022-11-01T00:14:20.085Z,99.90
2022-11-01T00:16:47.995Z,99.90
2022-11-01T00:19:15.717Z,99.90
2022-11-01T00:21:43.487Z,99.90
2022-11-01T00:24:11.290Z,99.90
2022-11-01T00:26:40.461Z,99.90
2022-11-01T00:29:08.196Z,99.90
2022-11-01T00:31:36.034Z,99.90
2022-11-01T00:34:06.051Z,99.90
2022-11-01T00:36:33.772Z,99.90
2022-11-01T00:39:01.463Z,99.90
2022-11-01T00:41:29.180Z,99.90
2022-11-01T00:43:58.229Z,99.90
2022-11-01T00:46:26.325Z,99.90
2022-11-01T00:48:54.016Z,99.90
2022-11-01T00:51:23.734Z,99.90
2022-11-01T00:53:51.441Z,99.90
2022-11-01T00:56:22.375Z,99.90
2022-11-01T00:58:50.065Z,99.90
2022-11-01T01:01:33.249Z,99.90
2022-11-01T01:04:01.101Z,99.90
2022-11-01T01:06:28.891Z,99.90
2022-11-01T01:08:58.706Z,99.90
2022-11-01T01:11:26.429Z,99.90
2022-11-01T01:13:54.081Z,99.90
2022-11-01T01:16:21.822Z,99.90
2022-11-01T01:18:50.881Z,99.90
2022-11-01T01:21:18.734Z,99.90
2022-11-01T01:23:48.569Z,99.90
2022-11-01T01:26:16.330Z,99.90
2022-11-01T01:28:45.002Z,99.90
2022-11-01T01:31:13.101Z,99.90
2022-11-01T01:33:40.859Z,99.90
2022-11-01T01:36:10.295Z,99.90
2022-11-01T01:38:38.002Z,99.90
2022-11-01T01:41:24.015Z,99.90
2022-11-01T01:43:51.891Z,99.90
2022-11-01T01:46:19.558Z,99.90
2022-11-01T01:48:48.510Z,99.90
2022-11-01T01:51:19.073Z,99.90
2022-11-01T01:53:48.422Z,99.90
2022-11-01T01:56:17.113Z,99.90
2022-11-01T01:58:46.629Z,99.90
2022-11-01T02:01:14.402Z,99.90
2022-11-01T02:03:43.254Z,99.90
2022-11-01T02:06:12.325Z,99.90
2022-11-01T02:08:43.136Z,99.90
2022-11-01T02:11:11.325Z,99.90
2022-11-01T02:13:39.359Z,99.90
2022-11-01T02:16:17.092Z,99.90
2022-11-01T02:18:47.094Z,99.90
2022-11-01T02:21:32.557Z,99.90
2022-11-01T02:24:13.753Z,99.90
2022-11-01T02:26:59.046Z,99.90
2022-11-01T02:29:40.498Z,99.90
2022-11-01T02:32:14.160Z,99.90
2022-11-01T02:34:44.717Z,99.90
2022-11-01T02:37:18.585Z,99.90
2022-11-01T02:39:49.193Z,99.90
2022-11-01T02:42:21.965Z,99.90
2022-11-01T02:44:52.425Z,99.90
2022-11-01T02:47:21.836Z,99.90
2022-11-01T02:49:51.461Z,99.90
2022-11-01T02:52:20.700Z,99.90
2022-11-01T02:54:50.996Z,99.90
2022-11-01T02:57:26.935Z,99.90
2022-11-01T03:00:01.886Z,99.90
2022-11-01T03:02:40.539Z,99.90
2022-11-01T03:05:10.300Z,99.90
2022-11-01T03:07:38.448Z,99.90
2022-11-01T03:10:06.705Z,99.90
2022-11-01T03:12:36.320Z,99.90
2022-11-01T03:15:05.966Z,99.90
2022-11-01T03:17:37.804Z,99.90
2022-11-01T03:20:07.616Z,99.90
2022-11-01T03:22:38.787Z,99.90
2022-11-01T03:25:30.358Z,99.90
2022-11-01T03:27:58.460Z,99.90
2022-11-01T03:30:26.140Z,99.90
2022-11-01T03:32:57.454Z,99.90
2022-11-01T03:35:26.324Z,99.90
2022-11-01T03:37:55.940Z,99.90
2022-11-01T03:40:24.760Z,99.90
2022-11-01T03:42:53.302Z,99.90
2022-11-01T03:47:58.036Z,99.90
2022-11-01T03:50:26.559Z,99.90
2022-11-01T03:52:54.259Z,99.90
2022-11-01T03:55:22.409Z,99.90
2022-11-01T03:57:50.797Z,99.90
2022-11-01T04:00:20.920Z,99.90
2022-11-01T04:02:49.027Z,99.90
2022-11-01T04:05:18.332Z,99.90
2022-11-01T04:07:46.119Z,99.90
2022-11-01T04:10:14.209Z,99.90
2022-11-01T04:12:41.882Z,99.90
2022-11-01T04:15:28.113Z,99.90
2022-11-01T04:18:20.724Z,99.90
2022-11-01T04:20:50.096Z,99.90
2022-11-01T04:23:17.780Z,99.90
2022-11-01T04:25:45.861Z,99.90
2022-11-01T04:28:13.586Z,99.90
2022-11-01T04:30:41.754Z,99.90
2022-11-01T04:33:09.657Z,99.90
2022-11-01T04:35:37.973Z,99.90
2022-11-01T04:38:07.123Z,99.90
2022-11-01T04:40:34.912Z,99.90
2022-11-01T04:43:02.821Z,99.90
2022-11-01T04:45:30.741Z,99.90
2022-11-01T04:48:02.672Z,99.90
2022-11-01T04:50:30.546Z,99.90
2022-11-01T04:52:58.880Z,99.90
2022-11-01T04:55:28.400Z,99.90
2022-11-01T04:57:56.404Z,99.90
2022-11-01T05:00:24.583Z,99.90
2022-11-01T05:02:52.365Z,99.90
2022-11-01T05:05:20.389Z,99.90
2022-11-01T05:07:48.097Z,99.90
2022-11-01T05:10:15.815Z,99.90
2022-11-01T05:12:44.948Z,99.90
2022-11-01T05:15:12.702Z,99.90
2022-11-01T05:17:42.103Z,99.90
2022-11-01T05:20:10.839Z,99.90
2022-11-01T05:22:38.576Z,99.90
2022-11-01T05:25:09.262Z,99.90
2022-11-01T05:27:36.930Z,99.90
2022-11-01T05:30:07.815Z,99.90
2022-11-01T05:32:37.846Z,99.90
2022-11-01T05:35:06.249Z,99.90
2022-11-01T05:37:35.782Z,99.90
2022-11-01T05:40:03.623Z,99.90
2022-11-01T05:42:31.288Z,99.90
2022-11-01T05:44:58.971Z,99.90
2022-11-01T05:47:28.013Z,99.90
2022-11-01T05:49:55.681Z,99.90
2022-11-01T05:52:23.347Z,99.90
2022-11-01T05:54:51.038Z,99.90
2022-11-01T05:57:18.729Z,99.90
2022-11-01T05:59:46.410Z,99.90
2022-11-01T06:02:14.207Z,99.90
2022-11-01T06:04:43.230Z,99.90
2022-11-01T06:07:10.932Z,99.90
2022-11-01T06:09:38.608Z,99.90
2022-11-01T06:12:06.568Z,99.90
2022-11-01T06:17:02.952Z,99.90
2022-11-01T06:19:30.659Z,99.90
2022-11-01T06:22:00.319Z,99.90
2022-11-01T06:24:28.019Z,99.90
2022-11-01T06:26:55.797Z,99.90
2022-11-01T06:29:23.561Z,99.90
2022-11-01T06:31:51.272Z,99.90
2022-11-01T06:34:18.950Z,99.90
2022-11-01T06:36:46.646Z,99.90
2022-11-01T06:39:17.573Z,99.90
2022-11-01T06:41:45.301Z,99.90
2022-11-01T06:44:13.020Z,99.90
2022-11-01T06:46:40.734Z,99.90
2022-11-01T06:49:08.410Z,99.90
2022-11-01T06:51:36.123Z,99.90
2022-11-01T06:54:04.041Z,99.90
2022-11-01T06:56:33.091Z,99.90
2022-11-01T06:59:01.237Z,99.90
2022-11-01T07:01:29.293Z,99.90
2022-11-01T07:03:57.172Z,99.90
2022-11-01T07:06:28.668Z,99.90
2022-11-01T07:08:56.358Z,99.90
2022-11-01T07:11:28.663Z,99.90
2022-11-01T07:14:00.166Z,99.90
2022-11-01T07:16:27.904Z,99.90
2022-11-01T07:18:55.605Z,99.90
2022-11-01T07:21:23.875Z,99.90
2022-11-01T07:23:52.678Z,99.90
2022-11-01T07:26:20.387Z,99.90
2022-11-01T07:28:48.073Z,99.90
2022-11-01T07:31:17.113Z,99.90
2022-11-01T07:33:44.779Z,99.90
2022-11-01T07:36:12.476Z,99.90
2022-11-01T07:38:40.335Z,99.90
2022-11-01T07:41:08.070Z,99.90
2022-11-01T07:43:36.671Z,99.90
2022-11-01T07:46:06.921Z,99.90
2022-11-01T07:48:36.842Z,99.90
2022-11-01T07:51:05.868Z,99.90
2022-11-01T07:53:33.800Z,99.90
2022-11-01T07:56:02.398Z,99.90
2022-11-01T07:58:31.109Z,99.90
2022-11-01T08:00:58.790Z,99.90
2022-11-01T08:03:26.483Z,99.90
2022-11-01T08:05:56.771Z,99.90
2022-11-01T08:08:24.464Z,99.90
2022-11-01T08:10:52.145Z,99.90
2022-11-01T08:13:20.784Z,99.90
2022-11-01T08:15:49.202Z,99.90
2022-11-01T08:18:17.563Z,99.90
2022-11-01T08:20:45.291Z,99.90
2022-11-01T08:23:14.377Z,99.90
2022-11-01T08:25:42.295Z,99.90
2022-11-01T08:28:11.661Z,99.90
2022-11-01T08:30:40.388Z,99.90
2022-11-01T08:33:08.140Z,99.90
2022-11-01T08:35:36.056Z,99.90
2022-11-01T08:38:04.170Z,99.90
2022-11-01T08:40:33.637Z,99.90
2022-11-01T08:43:01.834Z,99.90
2022-11-01T08:45:29.944Z,99.90
2022-11-01T08:47:58.248Z,99.90
2022-11-01T08:50:26.292Z,99.90
2022-11-01T08:52:53.966Z,99.90
2022-11-01T08:55:21.903Z,99.90
2022-11-01T08:57:50.955Z,99.90
2022-11-01T09:00:18.793Z,99.90
2022-11-01T09:02:46.582Z,99.90
2022-11-01T09:05:14.242Z,99.90
2022-11-01T09:07:41.908Z,99.90
2022-11-01T09:10:10.442Z,99.90
2022-11-01T09:15:12.714Z,99.90
2022-11-01T09:17:40.442Z,99.90
2022-11-01T09:20:09.459Z,99.90
2022-11-01T09:22:38.334Z,99.90
2022-11-01T09:25:06.408Z,99.90
2022-11-01T09:27:34.231Z,99.90
2022-11-01T09:30:01.983Z,99.90
2022-11-01T09:32:31.064Z,99.90
2022-11-01T09:34:58.774Z,99.90
2022-11-01T09:37:26.478Z,99.90
2022-11-01T09:39:54.143Z,99.90
2022-11-01T09:42:23.695Z,99.90
2022-11-01T09:44:56.596Z,99.90
2022-11-01T09:47:26.519Z,99.90
2022-11-01T09:50:00.235Z,99.90
2022-11-01T09:52:27.944Z,99.90
2022-11-01T09:54:55.629Z,99.90
2022-11-01T09:57:27.124Z,99.90
2022-11-01T10:00:00.029Z,99.90
2022-11-01T10:02:37.846Z,99.90
2022-11-01T10:05:19.066Z,99.90
2022-11-01T10:07:52.096Z,99.90
2022-11-01T10:10:25.639Z,99.90
2022-11-01T10:12:59.187Z,99.90
2022-11-01T10:15:33.285Z,99.90
2022-11-01T10:18:03.699Z,99.90
2022-11-01T10:20:34.383Z,99.90
2022-11-01T10:23:02.794Z,99.90
2022-11-01T10:25:32.393Z,99.90
2022-11-01T10:28:04.335Z,99.90
2022-11-01T10:30:36.674Z,99.90
2022-11-01T10:33:13.109Z,99.90
2022-11-01T10:35:43.417Z,99.90
2022-11-01T10:41:07.695Z,99.90
2022-11-01T10:43:37.849Z,99.90
2022-11-01T10:46:07.661Z,99.90
2022-11-01T10:48:37.892Z,99.90
2022-11-01T10:51:07.898Z,99.90
2022-11-01T10:53:37.726Z,99.90
2022-11-01T10:56:09.197Z,99.90
2022-11-01T10:58:39.186Z,99.90
2022-11-01T11:01:08.315Z,99.90
2022-11-01T11:03:36.175Z,99.90
2022-11-01T11:06:11.474Z,99.90
2022-11-01T11:08:40.027Z,99.90
2022-11-01T11:11:09.354Z,99.90
2022-11-01T11:13:37.932Z,99.90
2022-11-01T11:16:05.979Z,99.90
2022-11-01T11:18:37.445Z,99.90
2022-11-01T11:21:08.638Z,99.90
2022-11-01T11:23:42.219Z,99.90
2022-11-01T11:26:13.576Z,99.90
2022-11-01T11:28:44.417Z,99.90
2022-11-01T11:31:13.706Z,99.90
2022-11-01T11:33:48.609Z,99.90
2022-11-01T11:36:18.492Z,99.90
2022-11-01T11:38:47.419Z,99.90
2022-11-01T11:41:27.533Z,99.90
2022-11-01T11:43:55.257Z,99.90
2022-11-01T11:46:24.574Z,99.90
2022-11-01T11:48:59.051Z,99.90
2022-11-01T11:51:29.625Z,99.90
2022-11-01T11:54:07.704Z,99.90
2022-11-01T11:56:35.692Z,99.90
2022-11-01T11:59:08.494Z,99.90
2022-11-01T12:01:36.739Z,99.90
2022-11-01T12:04:07.066Z,99.90
2022-11-01T12:06:39.694Z,99.90
2022-11-01T12:09:09.879Z,99.70
2022-11-01T12:11:39.178Z,98.90
2022-11-01T12:14:08.305Z,99.00
2022-11-01T12:16:40.630Z,99.30
2022-11-01T12:19:22.820Z,99.10
2022-11-01T12:21:52.304Z,98.80
2022-11-01T12:24:22.424Z,98.50
2022-11-01T12:26:51.545Z,98.60
2022-11-01T12:29:25.811Z,98.40
2022-11-01T12:31:55.214Z,98.40
2022-11-01T12:34:24.411Z,98.00
2022-11-01T12:36:55.913Z,98.20
2022-11-01T12:39:36.121Z,98.60
2022-11-01T12:42:05.021Z,98.10
2022-11-01T12:44:34.650Z,97.50
2022-11-01T12:47:05.366Z,97.20
2022-11-01T12:49:34.829Z,97.50
2022-11-01T12:52:07.708Z,97.90
2022-11-01T12:54:37.356Z,96.80
2022-11-01T12:57:10.105Z,96.80
2022-11-01T12:59:38.283Z,97.40
2022-11-01T13:02:16.816Z,97.50
2022-11-01T13:04:49.589Z,98.20
2022-11-01T13:07:22.746Z,98.90
2022-11-01T13:09:56.457Z,97.90
2022-11-01T13:12:30.238Z,98.30
2022-11-01T13:15:02.422Z,98.60
2022-11-01T13:17:35.189Z,99.90
2022-11-01T13:20:08.130Z,99.90
2022-11-01T13:22:40.311Z,99.90
2022-11-01T13:25:14.059Z,99.90
2022-11-01T13:27:44.230Z,99.90
2022-11-01T13:30:13.136Z,99.90
2022-11-01T13:32:46.326Z,99.90
2022-11-01T13:35:31.604Z,99.90
2022-11-01T13:38:04.668Z,99.90
2022-11-01T13:40:34.504Z,99.90
2022-11-01T13:43:05.421Z,99.90
2022-11-01T13:45:58.538Z,99.90
2022-11-01T13:48:30.851Z,99.90
2022-11-01T13:51:06.667Z,99.90
2022-11-01T13:53:39.017Z,99.90
2022-11-01T13:56:09.469Z,99.90
2022-11-01T13:58:37.703Z,99.90
2022-11-01T14:01:20.374Z,99.90
2022-11-01T14:03:49.911Z,99.90
2022-11-01T14:09:31.349Z,99.90
2022-11-01T14:12:10.207Z,99.90
2022-11-01T14:14:53.653Z,99.90
2022-11-01T14:17:52.105Z,99.90
2022-11-01T14:20:40.182Z,99.90
2022-11-01T14:23:27.685Z,99.90
2022-11-01T14:26:10.266Z,99.90
2022-11-01T14:28:44.217Z,99.90
2022-11-01T14:31:12.006Z,99.90
2022-11-01T14:33:42.412Z,99.90
2022-11-01T14:36:12.934Z,99.90
2022-11-01T14:38:43.872Z,99.90
2022-11-01T14:41:14.207Z,99.90
2022-11-01T14:43:43.874Z,99.90
2022-11-01T14:46:14.273Z,99.90
2022-11-01T14:48:44.779Z,99.90
2022-11-01T14:51:17.406Z,99.90
2022-11-01T14:53:46.389Z,99.90
2022-11-01T14:56:15.367Z,99.90
2022-11-01T14:58:43.191Z,99.90
2022-11-01T15:01:15.084Z,99.90
2022-11-01T15:03:46.305Z,99.90
2022-11-01T15:06:22.441Z,99.90
2022-11-01T15:08:50.107Z,99.90
2022-11-01T15:11:17.853Z,99.90
2022-11-01T15:13:46.642Z,99.90
2022-11-01T15:16:18.547Z,99.90
2022-11-01T15:18:48.082Z,99.90
2022-11-01T15:23:46.988Z,99.90
2022-11-01T15:26:16.658Z,99.90
2022-11-01T15:28:47.952Z,99.90
2022-11-01T15:31:17.012Z,99.90
2022-11-01T15:33:52.864Z,99.90
2022-11-01T15:36:22.256Z,99.90
2022-11-01T15:38:51.015Z,99.90
2022-11-01T15:41:23.054Z,99.90
2022-11-01T15:43:54.184Z,99.90
2022-11-01T15:46:23.811Z,99.90
2022-11-01T15:48:52.657Z,99.90
2022-11-01T15:51:22.857Z,99.90
2022-11-01T15:53:54.774Z,99.90
2022-11-01T15:56:23.938Z,99.90
2022-11-01T15:58:53.481Z,99.90
2022-11-01T16:01:22.494Z,99.90
2022-11-01T16:03:55.490Z,99.90
2022-11-01T16:06:24.373Z,99.90
2022-11-01T16:08:53.499Z,99.90
2022-11-01T16:11:23.215Z,99.90
2022-11-01T16:13:52.053Z,99.90
2022-11-01T16:16:19.877Z,99.90
2022-11-01T16:18:47.964Z,99.90
2022-11-01T16:21:25.380Z,99.90
2022-11-01T16:23:57.227Z,99.90
2022-11-01T16:26:24.962Z,99.90
2022-11-01T16:28:54.738Z,99.90
2022-11-01T16:31:23.673Z,99.90
2022-11-01T16:33:51.652Z,99.90
2022-11-01T16:36:37.189Z,99.90
2022-11-01T16:39:19.916Z,99.90
2022-11-01T16:41:48.900Z,99.90
2022-11-01T16:44:16.910Z,99.90
2022-11-01T16:46:44.625Z,99.90
2022-11-01T16:49:17.774Z,99.90
2022-11-01T16:51:47.103Z,99.90
2022-11-01T16:54:14.904Z,99.90
2022-11-01T16:56:44.565Z,99.90
2022-11-01T16:59:20.141Z,99.90
2022-11-01T17:01:48.005Z,99.90
2022-11-01T17:04:16.093Z,99.90
2022-11-01T17:06:44.067Z,99.90
2022-11-01T17:09:14.836Z,99.90
2022-11-01T17:11:47.850Z,99.90
2022-11-01T17:14:17.493Z,99.90
2022-11-01T17:16:47.325Z,99.90
2022-11-01T17:19:17.855Z,99.90
2022-11-01T17:21:46.604Z,99.90
2022-11-01T17:24:17.170Z,99.90
2022-11-01T17:26:44.889Z,99.90
2022-11-01T17:29:13.697Z,99.90
2022-11-01T17:31:41.385Z,99.90
2022-11-01T17:34:09.088Z,99.90
2022-11-01T17:36:37.235Z,99.90
2022-11-01T17:39:05.257Z,99.90
2022-11-01T17:41:34.281Z,99.90
2022-11-01T17:44:02.325Z,99.90
2022-11-01T17:46:30.133Z,99.90
2022-11-01T17:48:57.920Z,99.90
2022-11-01T17:51:25.613Z,99.90
2022-11-01T17:53:54.029Z,99.90
2022-11-01T17:56:21.750Z,99.90
2022-11-01T17:58:52.630Z,99.90
2022-11-01T18:01:20.598Z,99.90
2022-11-01T18:03:48.541Z,99.90
2022-11-01T18:06:16.585Z,99.90
2022-11-01T18:08:46.045Z,99.90
2022-11-01T18:11:16.371Z,99.90
2022-11-01T18:13:48.756Z,99.90
2022-11-01T18:16:24.945Z,99.90
2022-11-01T18:19:00.348Z,99.90
2022-11-01T18:21:32.282Z,99.90
2022-11-01T18:24:01.438Z,99.90
2022-11-01T18:26:29.840Z,99.90
2022-11-01T18:29:00.984Z,99.90
2022-11-01T18:31:33.453Z,99.90
2022-11-01T18:34:05.758Z,99.90
2022-11-01T18:36:35.170Z,99.90
2022-11-01T18:39:07.666Z,99.90
2022-11-01T18:41:35.395Z,99.90
2022-11-01T18:44:03.858Z,99.90
2022-11-01T18:46:37.966Z,99.90
2022-11-01T18:49:07.369Z,99.90
2022-11-01T18:51:36.713Z,99.90
2022-11-01T18:54:15.730Z,99.90
2022-11-01T18:56:48.016Z,99.90
2022-11-01T18:59:16.828Z,99.90
2022-11-01T19:01:46.295Z,99.90
2022-11-01T19:04:17.436Z,99.90
2022-11-01T19:06:45.416Z,99.90
2022-11-01T19:09:17.240Z,99.90
2022-11-01T19:11:44.939Z,99.90
2022-11-01T19:14:14.290Z,99.90
2022-11-01T19:16:42.121Z,99.90
2022-11-01T19:19:14.327Z,99.90
2022-11-01T19:21:42.059Z,99.90
2022-11-01T19:24:17.391Z,99.90
2022-11-01T19:26:45.054Z,99.90
2022-11-01T19:29:13.882Z,99.90
2022-11-01T19:31:43.803Z,99.90
2022-11-01T19:34:14.261Z,99.90
2022-11-01T19:36:43.409Z,99.90
2022-11-01T19:39:20.568Z,99.90
2022-11-01T19:41:48.277Z,99.90
2022-11-01T19:44:19.143Z,99.90
2022-11-01T19:46:46.977Z,99.90
2022-11-01T19:49:19.806Z,99.90
2022-11-01T19:51:47.526Z,99.90
2022-11-01T19:54:15.269Z,99.90
2022-11-01T19:56:42.957Z,99.90
2022-11-01T19:59:12.537Z,99.90
2022-11-01T20:01:45.951Z,99.90
2022-11-01T20:04:27.200Z,99.90
2022-11-01T20:06:57.405Z,99.90
2022-11-01T20:09:26.657Z,99.90
2022-11-01T20:11:54.441Z,99.90
2022-11-01T20:14:22.184Z,99.90
2022-11-01T20:16:50.193Z,99.90
2022-11-01T20:19:18.191Z,99.90
2022-11-01T20:21:47.513Z,99.90
2022-11-01T20:24:15.454Z,99.90
2022-11-01T20:26:43.211Z,99.90
2022-11-01T20:29:11.145Z,99.90
2022-11-01T20:31:38.894Z,99.90
2022-11-01T20:34:06.945Z,99.90
2022-11-01T20:36:34.630Z,99.90
2022-11-01T20:39:03.900Z,99.90
2022-11-01T20:41:32.468Z,99.90
2022-11-01T20:44:00.483Z,99.90
2022-11-01T20:46:28.392Z,99.90
2022-11-01T20:48:56.142Z,99.90
2022-11-01T20:51:23.842Z,99.90
2022-11-01T20:53:51.773Z,99.90
2022-11-01T20:56:20.869Z,99.90
2022-11-01T20:58:48.618Z,99.90
2022-11-01T21:01:16.940Z,99.90
2022-11-01T21:03:44.705Z,99.90
2022-11-01T21:06:13.285Z,99.90
2022-11-01T21:08:43.004Z,99.90
2022-11-01T21:11:13.076Z,99.90
2022-11-01T21:13:45.301Z,99.90
2022-11-01T21:16:17.653Z,99.90
2022-11-01T21:18:45.951Z,99.90
2022-11-01T21:21:31.309Z,99.90
2022-11-01T21:23:59.613Z,99.90
2022-11-01T21:26:30.725Z,99.90
2022-11-01T21:29:02.710Z,99.90
2022-11-01T21:31:31.394Z,99.90
2022-11-01T21:34:00.994Z,99.90
2022-11-01T21:36:29.741Z,99.90
2022-11-01T21:38:57.876Z,99.90
2022-11-01T21:41:28.265Z,99.90
2022-11-01T21:43:57.000Z,99.90
2022-11-01T21:46:27.355Z,99.90
2022-11-01T21:48:58.007Z,99.90
2022-11-01T21:51:26.488Z,99.90
2022-11-01T21:53:54.162Z,99.90
2022-11-01T21:56:22.071Z,99.90
2022-11-01T21:58:49.737Z,99.90
2022-11-01T22:01:17.559Z,99.90
2022-11-01T22:03:46.678Z,99.90
2022-11-01T22:06:14.352Z,99.90
2022-11-01T22:08:42.047Z,99.90
2022-11-01T22:11:09.772Z,99.90
2022-11-01T22:13:37.445Z,99.90
2022-11-01T22:16:05.337Z,99.90
2022-11-01T22:18:33.037Z,99.90
2022-11-01T22:21:02.133Z,99.90
2022-11-01T22:23:29.844Z,99.90
2022-11-01T22:25:57.515Z,99.90
2022-11-01T22:28:25.203Z,99.90
2022-11-01T22:30:52.895Z,99.90
2022-11-01T22:33:20.622Z,99.90
2022-11-01T22:35:48.282Z,99.90
2022-11-01T22:38:19.316Z,99.90
2022-11-01T22:40:50.616Z,99.90
2022-11-01T22:43:19.036Z,99.90
2022-11-01T22:45:46.702Z,99.90
2022-11-01T22:48:16.064Z,99.90
2022-11-01T22:50:43.885Z,99.90
2022-11-01T22:53:12.685Z,99.90
2022-11-01T22:55:43.670Z,99.90
2022-11-01T22:58:29.997Z,99.90
2022-11-01T23:00:58.829Z,99.90
2022-11-01T23:03:27.948Z,99.90
2022-11-01T23:05:56.489Z,99.90
2022-11-01T23:08:25.362Z,99.90
2022-11-01T23:10:54.792Z,99.90
2022-11-01T23:13:42.490Z,99.90
2022-11-01T23:16:15.399Z,99.90
2022-11-01T23:18:44.167Z,99.90
2022-11-01T23:21:11.862Z,99.90
2022-11-01T23:23:41.646Z,99.90
2022-11-01T23:26:11.122Z,99.90
2022-11-01T23:28:41.734Z,99.90
2022-11-01T23:31:09.436Z,99.90
2022-11-01T23:33:40.633Z,99.90
2022-11-01T23:36:14.066Z,99.90
2022-11-01T23:38:42.806Z,99.90
2022-11-01T23:41:18.783Z,99.90
2022-11-01T23:43:46.503Z,99.90
2022-11-01T23:46:14.869Z,99.90
2022-11-01T23:48:44.455Z,99.90
2022-11-01T23:51:15.353Z,99.90
2022-11-01T23:53:43.885Z,99.90
2022-11-01T23:56:15.378Z,99.90
2022-11-01T23:58:43.152Z,99.90
